sensor_id;sensor_type;location;lat;lon;timestamp;P1;durP1;ratioP1;P2;durP2;ratioP2
45848;SDS011;31567;54.600;9.842;2023-01-08T00:01:05;2.42;;;2.22;;
45848;SDS011;31567;54.600;9.842;2023-01-08T00:04:49;2.45;;;2.25;;
45848;SDS011;31567;54.600;9.842;2023-01-08T00:08:29;1.85;;;1.75;;
45848;SDS011;31567;54.600;9.842;2023-01-08T00:12:09;3.55;;;2.33;;
45848;SDS011;31567;54.600;9.842;2023-01-08T00:15:49;2.45;;;2.25;;
45848;SDS011;31567;54.600;9.842;2023-01-08T00:19:28;2.58;;;2.38;;
45848;SDS011;31567;54.600;9.842;2023-01-08T00:23:15;2.45;;;2.35;;
45848;SDS011;31567;54.600;9.842;2023-01-08T00:26:56;3.08;;;2.78;;
45848;SDS011;31567;54.600;9.842;2023-01-08T00:30:36;3.58;;;2.65;;
45848;SDS011;31567;54.600;9.842;2023-01-08T00:34:16;2.80;;;2.60;;
45848;SDS011;31567;54.600;9.842;2023-01-08T00:37:55;2.60;;;2.40;;
45848;SDS011;31567;54.600;9.842;2023-01-08T00:41:35;3.00;;;2.80;;
45848;SDS011;31567;54.600;9.842;2023-01-08T00:45:14;2.85;;;2.28;;
45848;SDS011;31567;54.600;9.842;2023-01-08T00:48:54;2.95;;;2.75;;
45848;SDS011;31567;54.600;9.842;2023-01-08T00:52:33;3.60;;;2.80;;
45848;SDS011;31567;54.600;9.842;2023-01-08T00:56:13;3.67;;;2.53;;
45848;SDS011;31567;54.600;9.842;2023-01-08T00:59:52;2.92;;;2.72;;
45848;SDS011;31567;54.600;9.842;2023-01-08T01:03:32;3.75;;;2.80;;
45848;SDS011;31567;54.600;9.842;2023-01-08T01:07:11;3.10;;;2.78;;
45848;SDS011;31567;54.600;9.842;2023-01-08T01:10:51;2.90;;;2.70;;
45848;SDS011;31567;54.600;9.842;2023-01-08T01:14:30;2.85;;;2.65;;
45848;SDS011;31567;54.600;9.842;2023-01-08T01:18:10;4.03;;;2.85;;
45848;SDS011;31567;54.600;9.842;2023-01-08T01:21:50;3.45;;;3.13;;
45848;SDS011;31567;54.600;9.842;2023-01-08T01:25:29;2.45;;;2.28;;
45848;SDS011;31567;54.600;9.842;2023-01-08T01:29:09;2.78;;;2.58;;
45848;SDS011;31567;54.600;9.842;2023-01-08T01:32:48;2.70;;;2.50;;
45848;SDS011;31567;54.600;9.842;2023-01-08T01:36:28;2.97;;;2.78;;
45848;SDS011;31567;54.600;9.842;2023-01-08T01:40:08;3.90;;;2.83;;
45848;SDS011;31567;54.600;9.842;2023-01-08T01:43:47;2.88;;;2.67;;
45848;SDS011;31567;54.600;9.842;2023-01-08T01:47:35;3.55;;;2.97;;
45848;SDS011;31567;54.600;9.842;2023-01-08T01:51:17;2.75;;;2.55;;
45848;SDS011;31567;54.600;9.842;2023-01-08T01:54:58;2.92;;;2.60;;
45848;SDS011;31567;54.600;9.842;2023-01-08T01:58:39;3.42;;;3.13;;
45848;SDS011;31567;54.600;9.842;2023-01-08T02:02:19;3.30;;;2.92;;
45848;SDS011;31567;54.600;9.842;2023-01-08T02:10:13;3.17;;;2.90;;
45848;SDS011;31567;54.600;9.842;2023-01-08T02:14:21;4.15;;;2.90;;
45848;SDS011;31567;54.600;9.842;2023-01-08T02:18:11;4.57;;;2.85;;
45848;SDS011;31567;54.600;9.842;2023-01-08T02:30:08;3.50;;;3.20;;
45848;SDS011;31567;54.600;9.842;2023-01-08T02:33:48;2.60;;;2.40;;
45848;SDS011;31567;54.600;9.842;2023-01-08T02:37:28;3.50;;;3.20;;
45848;SDS011;31567;54.600;9.842;2023-01-08T02:41:08;4.57;;;3.30;;
45848;SDS011;31567;54.600;9.842;2023-01-08T02:48:32;3.47;;;3.17;;
45848;SDS011;31567;54.600;9.842;2023-01-08T02:52:21;2.90;;;2.70;;
45848;SDS011;31567;54.600;9.842;2023-01-08T02:56:04;3.15;;;2.95;;
45848;SDS011;31567;54.600;9.842;2023-01-08T02:59:47;3.63;;;3.33;;
45848;SDS011;31567;54.600;9.842;2023-01-08T03:03:28;4.65;;;3.47;;
45848;SDS011;31567;54.600;9.842;2023-01-08T03:07:09;3.67;;;3.38;;
45848;SDS011;31567;54.600;9.842;2023-01-08T03:10:50;3.75;;;3.45;;
45848;SDS011;31567;54.600;9.842;2023-01-08T03:14:38;3.65;;;3.35;;
45848;SDS011;31567;54.600;9.842;2023-01-08T03:18:32;3.38;;;3.17;;
45848;SDS011;31567;54.600;9.842;2023-01-08T03:22:15;4.05;;;3.38;;
45848;SDS011;31567;54.600;9.842;2023-01-08T03:25:56;5.10;;;3.88;;
45848;SDS011;31567;54.600;9.842;2023-01-08T03:29:38;4.30;;;4.00;;
45848;SDS011;31567;54.600;9.842;2023-01-08T03:33:18;3.63;;;3.33;;
45848;SDS011;31567;54.600;9.842;2023-01-08T03:37:01;3.60;;;3.30;;
45848;SDS011;31567;54.600;9.842;2023-01-08T03:40:43;3.78;;;3.47;;
45848;SDS011;31567;54.600;9.842;2023-01-08T03:44:26;3.78;;;3.47;;
45848;SDS011;31567;54.600;9.842;2023-01-08T03:48:05;3.97;;;3.67;;
45848;SDS011;31567;54.600;9.842;2023-01-08T03:51:46;3.53;;;3.33;;
45848;SDS011;31567;54.600;9.842;2023-01-08T03:55:26;3.97;;;3.67;;
45848;SDS011;31567;54.600;9.842;2023-01-08T03:59:05;5.25;;;4.05;;
45848;SDS011;31567;54.600;9.842;2023-01-08T04:02:45;4.97;;;3.90;;
45848;SDS011;31567;54.600;9.842;2023-01-08T04:06:24;5.40;;;4.90;;
45848;SDS011;31567;54.600;9.842;2023-01-08T04:10:04;3.85;;;3.55;;
45848;SDS011;31567;54.600;9.842;2023-01-08T04:13:44;4.40;;;4.00;;
45848;SDS011;31567;54.600;9.842;2023-01-08T04:17:24;3.80;;;3.50;;
45848;SDS011;31567;54.600;9.842;2023-01-08T04:21:03;4.15;;;3.70;;
45848;SDS011;31567;54.600;9.842;2023-01-08T04:24:43;3.90;;;3.55;;
45848;SDS011;31567;54.600;9.842;2023-01-08T04:28:22;5.38;;;3.90;;
45848;SDS011;31567;54.600;9.842;2023-01-08T04:32:02;4.25;;;3.85;;
45848;SDS011;31567;54.600;9.842;2023-01-08T04:35:42;5.05;;;4.65;;
45848;SDS011;31567;54.600;9.842;2023-01-08T04:39:22;4.13;;;3.83;;
45848;SDS011;31567;54.600;9.842;2023-01-08T04:43:01;4.75;;;4.28;;
45848;SDS011;31567;54.600;9.842;2023-01-08T04:46:41;4.65;;;4.30;;
45848;SDS011;31567;54.600;9.842;2023-01-08T04:50:20;4.60;;;4.20;;
45848;SDS011;31567;54.600;9.842;2023-01-08T04:54:00;4.85;;;4.35;;
45848;SDS011;31567;54.600;9.842;2023-01-08T04:57:39;4.18;;;3.85;;
45848;SDS011;31567;54.600;9.842;2023-01-08T05:01:20;4.72;;;4.32;;
45848;SDS011;31567;54.600;9.842;2023-01-08T05:05:01;6.32;;;4.82;;
45848;SDS011;31567;54.600;9.842;2023-01-08T05:08:40;4.63;;;4.22;;
45848;SDS011;31567;54.600;9.842;2023-01-08T05:12:20;4.88;;;4.47;;
45848;SDS011;31567;54.600;9.842;2023-01-08T05:16:00;4.45;;;4.05;;
45848;SDS011;31567;54.600;9.842;2023-01-08T05:19:39;4.88;;;4.47;;
45848;SDS011;31567;54.600;9.842;2023-01-08T05:23:19;5.10;;;4.70;;
45848;SDS011;31567;54.600;9.842;2023-01-08T05:26:59;4.90;;;4.50;;
45848;SDS011;31567;54.600;9.842;2023-01-08T05:30:38;5.13;;;4.40;;
45848;SDS011;31567;54.600;9.842;2023-01-08T05:34:18;5.85;;;4.72;;
45848;SDS011;31567;54.600;9.842;2023-01-08T05:38:00;5.25;;;4.80;;
45848;SDS011;31567;54.600;9.842;2023-01-08T05:41:40;5.45;;;4.93;;
45848;SDS011;31567;54.600;9.842;2023-01-08T05:45:19;5.28;;;4.75;;
45848;SDS011;31567;54.600;9.842;2023-01-08T05:48:59;5.30;;;4.80;;
45848;SDS011;31567;54.600;9.842;2023-01-08T05:52:38;6.22;;;4.25;;
45848;SDS011;31567;54.600;9.842;2023-01-08T05:56:18;5.10;;;4.60;;
45848;SDS011;31567;54.600;9.842;2023-01-08T05:59:57;5.05;;;4.57;;
45848;SDS011;31567;54.600;9.842;2023-01-08T06:03:37;4.97;;;4.57;;
45848;SDS011;31567;54.600;9.842;2023-01-08T06:07:17;5.15;;;4.65;;
45848;SDS011;31567;54.600;9.842;2023-01-08T06:10:57;5.47;;;4.97;;
45848;SDS011;31567;54.600;9.842;2023-01-08T06:14:38;5.93;;;5.47;;
45848;SDS011;31567;54.600;9.842;2023-01-08T06:22:16;5.70;;;5.20;;
45848;SDS011;31567;54.600;9.842;2023-01-08T06:25:57;5.85;;;5.40;;
45848;SDS011;31567;54.600;9.842;2023-01-08T06:29:37;5.50;;;5.00;;
45848;SDS011;31567;54.600;9.842;2023-01-08T06:33:17;5.93;;;5.28;;
45848;SDS011;31567;54.600;9.842;2023-01-08T06:36:57;7.20;;;5.25;;
45848;SDS011;31567;54.600;9.842;2023-01-08T06:40:37;6.90;;;5.50;;
45848;SDS011;31567;54.600;9.842;2023-01-08T06:44:17;5.82;;;5.32;;
45848;SDS011;31567;54.600;9.842;2023-01-08T06:48:00;6.13;;;5.32;;
45848;SDS011;31567;54.600;9.842;2023-01-08T06:51:41;5.40;;;4.95;;
45848;SDS011;31567;54.600;9.842;2023-01-08T06:55:20;5.30;;;4.90;;
45848;SDS011;31567;54.600;9.842;2023-01-08T06:59:01;5.95;;;4.82;;
45848;SDS011;31567;54.600;9.842;2023-01-08T07:02:41;5.18;;;4.70;;
45848;SDS011;31567;54.600;9.842;2023-01-08T07:06:20;5.75;;;4.65;;
45848;SDS011;31567;54.600;9.842;2023-01-08T07:10:01;6.00;;;4.45;;
45848;SDS011;31567;54.600;9.842;2023-01-08T07:13:40;5.45;;;4.90;;
45848;SDS011;31567;54.600;9.842;2023-01-08T07:17:20;5.43;;;4.57;;
45848;SDS011;31567;54.600;9.842;2023-01-08T07:20:59;5.10;;;4.60;;
45848;SDS011;31567;54.600;9.842;2023-01-08T07:24:40;5.57;;;5.07;;
45848;SDS011;31567;54.600;9.842;2023-01-08T07:28:19;6.25;;;5.05;;
45848;SDS011;31567;54.600;9.842;2023-01-08T07:31:59;5.20;;;4.80;;
45848;SDS011;31567;54.600;9.842;2023-01-08T07:35:38;6.10;;;5.38;;
45848;SDS011;31567;54.600;9.842;2023-01-08T07:39:18;6.28;;;5.68;;
45848;SDS011;31567;54.600;9.842;2023-01-08T07:43:01;6.72;;;6.07;;
45848;SDS011;31567;54.600;9.842;2023-01-08T07:46:42;6.18;;;5.57;;
45848;SDS011;31567;54.600;9.842;2023-01-08T07:50:21;6.53;;;5.78;;
45848;SDS011;31567;54.600;9.842;2023-01-08T07:54:01;6.10;;;5.30;;
45848;SDS011;31567;54.600;9.842;2023-01-08T07:57:40;7.47;;;5.90;;
45848;SDS011;31567;54.600;9.842;2023-01-08T08:01:20;5.97;;;5.47;;
45848;SDS011;31567;54.600;9.842;2023-01-08T08:05:00;6.22;;;5.63;;
45848;SDS011;31567;54.600;9.842;2023-01-08T08:08:39;7.72;;;6.68;;
45848;SDS011;31567;54.600;9.842;2023-01-08T08:12:19;6.70;;;5.97;;
45848;SDS011;31567;54.600;9.842;2023-01-08T08:16:04;6.13;;;5.63;;
45848;SDS011;31567;54.600;9.842;2023-01-08T08:19:44;5.82;;;5.30;;
45848;SDS011;31567;54.600;9.842;2023-01-08T08:23:23;6.82;;;5.43;;
45848;SDS011;31567;54.600;9.842;2023-01-08T08:27:03;6.97;;;6.28;;
45848;SDS011;31567;54.600;9.842;2023-01-08T08:30:43;7.85;;;6.53;;
45848;SDS011;31567;54.600;9.842;2023-01-08T08:34:23;5.72;;;5.10;;
45848;SDS011;31567;54.600;9.842;2023-01-08T08:38:03;10.98;;;6.07;;
45848;SDS011;31567;54.600;9.842;2023-01-08T08:41:42;7.70;;;5.45;;
45848;SDS011;31567;54.600;9.842;2023-01-08T08:45:22;5.90;;;5.40;;
45848;SDS011;31567;54.600;9.842;2023-01-08T08:49:01;5.80;;;5.30;;
45848;SDS011;31567;54.600;9.842;2023-01-08T08:52:41;5.78;;;5.28;;
45848;SDS011;31567;54.600;9.842;2023-01-08T08:56:22;5.38;;;4.88;;
45848;SDS011;31567;54.600;9.842;2023-01-08T09:00:02;7.00;;;5.25;;
45848;SDS011;31567;54.600;9.842;2023-01-08T09:03:42;5.55;;;4.88;;
45848;SDS011;31567;54.600;9.842;2023-01-08T09:07:21;6.38;;;5.40;;
45848;SDS011;31567;54.600;9.842;2023-01-08T09:11:01;6.28;;;5.68;;
45848;SDS011;31567;54.600;9.842;2023-01-08T09:14:40;5.57;;;5.07;;
45848;SDS011;31567;54.600;9.842;2023-01-08T09:18:20;7.43;;;5.45;;
45848;SDS011;31567;54.600;9.842;2023-01-08T09:22:00;5.50;;;5.00;;
45848;SDS011;31567;54.600;9.842;2023-01-08T09:25:40;6.15;;;5.55;;
45848;SDS011;31567;54.600;9.842;2023-01-08T09:29:20;5.25;;;4.43;;
45848;SDS011;31567;54.600;9.842;2023-01-08T09:33:00;5.68;;;5.18;;
45848;SDS011;31567;54.600;9.842;2023-01-08T09:36:40;6.93;;;5.10;;
45848;SDS011;31567;54.600;9.842;2023-01-08T09:40:31;7.63;;;4.70;;
45848;SDS011;31567;54.600;9.842;2023-01-08T09:44:27;7.38;;;5.00;;
45848;SDS011;31567;54.600;9.842;2023-01-08T09:48:12;6.60;;;5.15;;
45848;SDS011;31567;54.600;9.842;2023-01-08T09:51:54;5.40;;;4.90;;
45848;SDS011;31567;54.600;9.842;2023-01-08T09:55:34;6.32;;;5.30;;
45848;SDS011;31567;54.600;9.842;2023-01-08T09:59:15;7.95;;;5.80;;
45848;SDS011;31567;54.600;9.842;2023-01-08T10:02:55;5.45;;;4.95;;
45848;SDS011;31567;54.600;9.842;2023-01-08T10:06:36;5.90;;;4.97;;
45848;SDS011;31567;54.600;9.842;2023-01-08T10:10:19;6.32;;;5.22;;
45848;SDS011;31567;54.600;9.842;2023-01-08T10:14:16;5.80;;;5.20;;
45848;SDS011;31567;54.600;9.842;2023-01-08T10:18:03;6.43;;;5.40;;
45848;SDS011;31567;54.600;9.842;2023-01-08T10:21:44;7.63;;;5.35;;
45848;SDS011;31567;54.600;9.842;2023-01-08T10:25:25;7.05;;;5.00;;
45848;SDS011;31567;54.600;9.842;2023-01-08T10:29:13;6.38;;;5.78;;
45848;SDS011;31567;54.600;9.842;2023-01-08T10:32:55;5.63;;;4.97;;
45848;SDS011;31567;54.600;9.842;2023-01-08T10:36:39;6.10;;;5.50;;
45848;SDS011;31567;54.600;9.842;2023-01-08T10:44:12;5.07;;;4.68;;
45848;SDS011;31567;54.600;9.842;2023-01-08T10:47:57;5.45;;;4.93;;
45848;SDS011;31567;54.600;9.842;2023-01-08T10:51:42;4.95;;;4.40;;
45848;SDS011;31567;54.600;9.842;2023-01-08T10:55:29;4.43;;;4.13;;
45848;SDS011;31567;54.600;9.842;2023-01-08T10:59:20;4.80;;;4.30;;
45848;SDS011;31567;54.600;9.842;2023-01-08T11:03:18;4.72;;;4.28;;
45848;SDS011;31567;54.600;9.842;2023-01-08T11:07:06;4.65;;;4.25;;
45848;SDS011;31567;54.600;9.842;2023-01-08T11:10:55;4.57;;;4.22;;
45848;SDS011;31567;54.600;9.842;2023-01-08T11:14:36;4.88;;;4.38;;
45848;SDS011;31567;54.600;9.842;2023-01-08T11:18:19;7.20;;;5.10;;
45848;SDS011;31567;54.600;9.842;2023-01-08T11:22:04;4.13;;;3.72;;
45848;SDS011;31567;54.600;9.842;2023-01-08T11:29:44;4.38;;;3.97;;
45848;SDS011;31567;54.600;9.842;2023-01-08T11:33:29;4.38;;;3.97;;
45848;SDS011;31567;54.600;9.842;2023-01-08T11:37:17;4.93;;;3.83;;
45848;SDS011;31567;54.600;9.842;2023-01-08T11:45:10;4.25;;;3.83;;
45848;SDS011;31567;54.600;9.842;2023-01-08T11:53:50;4.55;;;3.72;;
45848;SDS011;31567;54.600;9.842;2023-01-08T11:57:48;4.70;;;4.30;;
45848;SDS011;31567;54.600;9.842;2023-01-08T12:01:44;4.13;;;3.70;;
45848;SDS011;31567;54.600;9.842;2023-01-08T12:05:29;4.63;;;4.15;;
45848;SDS011;31567;54.600;9.842;2023-01-08T12:21:19;5.00;;;4.05;;
45848;SDS011;31567;54.600;9.842;2023-01-08T12:25:19;4.32;;;3.50;;
45848;SDS011;31567;54.600;9.842;2023-01-08T12:37:19;4.97;;;3.75;;
45848;SDS011;31567;54.600;9.842;2023-01-08T12:41:22;5.13;;;3.10;;
45848;SDS011;31567;54.600;9.842;2023-01-08T12:45:02;6.13;;;3.00;;
45848;SDS011;31567;54.600;9.842;2023-01-08T12:48:46;5.72;;;3.47;;
45848;SDS011;31567;54.600;9.842;2023-01-08T12:52:42;4.65;;;3.22;;
45848;SDS011;31567;54.600;9.842;2023-01-08T13:00:24;3.42;;;3.13;;
45848;SDS011;31567;54.600;9.842;2023-01-08T13:04:11;5.25;;;3.15;;
45848;SDS011;31567;54.600;9.842;2023-01-08T13:07:52;3.80;;;3.25;;
45848;SDS011;31567;54.600;9.842;2023-01-08T13:12:05;4.38;;;3.33;;
45848;SDS011;31567;54.600;9.842;2023-01-08T13:15:45;4.43;;;3.30;;
45848;SDS011;31567;54.600;9.842;2023-01-08T13:19:28;3.28;;;3.00;;
45848;SDS011;31567;54.600;9.842;2023-01-08T13:23:20;3.72;;;2.58;;
45848;SDS011;31567;54.600;9.842;2023-01-08T13:31:05;7.15;;;2.58;;
45848;SDS011;31567;54.600;9.842;2023-01-08T13:39:01;6.20;;;2.53;;
45848;SDS011;31567;54.600;9.842;2023-01-08T13:42:59;6.65;;;2.47;;
45848;SDS011;31567;54.600;9.842;2023-01-08T13:46:40;4.18;;;2.78;;
45848;SDS011;31567;54.600;9.842;2023-01-08T13:50:20;4.72;;;2.70;;
45848;SDS011;31567;54.600;9.842;2023-01-08T13:57:56;6.88;;;2.65;;
45848;SDS011;31567;54.600;9.842;2023-01-08T14:01:37;3.30;;;2.45;;
45848;SDS011;31567;54.600;9.842;2023-01-08T14:05:19;2.58;;;2.20;;
45848;SDS011;31567;54.600;9.842;2023-01-08T14:09:01;4.05;;;1.83;;
45848;SDS011;31567;54.600;9.842;2023-01-08T14:12:42;3.10;;;1.70;;
45848;SDS011;31567;54.600;9.842;2023-01-08T14:16:22;4.75;;;1.58;;
45848;SDS011;31567;54.600;9.842;2023-01-08T14:20:07;5.43;;;1.50;;
45848;SDS011;31567;54.600;9.842;2023-01-08T14:23:49;5.25;;;1.40;;
45848;SDS011;31567;54.600;9.842;2023-01-08T14:27:32;3.03;;;1.30;;
45848;SDS011;31567;54.600;9.842;2023-01-08T14:31:17;2.35;;;1.30;;
45848;SDS011;31567;54.600;9.842;2023-01-08T14:35:00;5.47;;;1.40;;
45848;SDS011;31567;54.600;9.842;2023-01-08T14:38:41;5.53;;;1.20;;
45848;SDS011;31567;54.600;9.842;2023-01-08T14:42:35;6.80;;;1.30;;
45848;SDS011;31567;54.600;9.842;2023-01-08T14:46:23;7.68;;;1.30;;
45848;SDS011;31567;54.600;9.842;2023-01-08T14:50:06;3.97;;;1.10;;
45848;SDS011;31567;54.600;9.842;2023-01-08T14:53:55;2.58;;;0.90;;
45848;SDS011;31567;54.600;9.842;2023-01-08T14:57:42;6.13;;;1.13;;
45848;SDS011;31567;54.600;9.842;2023-01-08T15:01:27;2.22;;;1.20;;
45848;SDS011;31567;54.600;9.842;2023-01-08T15:08:58;9.45;;;1.63;;
45848;SDS011;31567;54.600;9.842;2023-01-08T15:12:38;4.63;;;1.45;;
45848;SDS011;31567;54.600;9.842;2023-01-08T15:16:22;7.63;;;1.40;;
45848;SDS011;31567;54.600;9.842;2023-01-08T15:20:07;3.25;;;1.13;;
45848;SDS011;31567;54.600;9.842;2023-01-08T15:23:55;5.32;;;1.23;;
45848;SDS011;31567;54.600;9.842;2023-01-08T15:27:36;5.70;;;1.55;;
45848;SDS011;31567;54.600;9.842;2023-01-08T15:35:11;4.68;;;1.77;;
45848;SDS011;31567;54.600;9.842;2023-01-08T15:38:53;2.47;;;1.90;;
45848;SDS011;31567;54.600;9.842;2023-01-08T15:42:32;6.05;;;1.83;;
45848;SDS011;31567;54.600;9.842;2023-01-08T15:46:31;3.63;;;1.88;;
45848;SDS011;31567;54.600;9.842;2023-01-08T15:50:11;2.65;;;2.40;;
45848;SDS011;31567;54.600;9.842;2023-01-08T15:53:51;4.35;;;2.33;;
45848;SDS011;31567;54.600;9.842;2023-01-08T15:57:30;3.60;;;2.67;;
45848;SDS011;31567;54.600;9.842;2023-01-08T16:01:10;4.88;;;2.90;;
45848;SDS011;31567;54.600;9.842;2023-01-08T16:04:53;7.22;;;3.45;;
45848;SDS011;31567;54.600;9.842;2023-01-08T16:08:33;3.97;;;3.20;;
45848;SDS011;31567;54.600;9.842;2023-01-08T16:12:13;4.43;;;3.25;;
45848;SDS011;31567;54.600;9.842;2023-01-08T16:15:53;6.32;;;3.40;;
45848;SDS011;31567;54.600;9.842;2023-01-08T16:19:33;4.30;;;3.10;;
45848;SDS011;31567;54.600;9.842;2023-01-08T16:23:13;6.78;;;3.00;;
45848;SDS011;31567;54.600;9.842;2023-01-08T16:26:52;5.65;;;3.15;;
45848;SDS011;31567;54.600;9.842;2023-01-08T16:30:32;5.43;;;3.22;;
45848;SDS011;31567;54.600;9.842;2023-01-08T16:34:12;4.28;;;3.33;;
45848;SDS011;31567;54.600;9.842;2023-01-08T16:37:53;4.22;;;2.78;;
45848;SDS011;31567;54.600;9.842;2023-01-08T16:41:34;5.90;;;2.60;;
45848;SDS011;31567;54.600;9.842;2023-01-08T16:45:14;5.18;;;2.45;;
45848;SDS011;31567;54.600;9.842;2023-01-08T16:48:54;4.03;;;2.25;;
45848;SDS011;31567;54.600;9.842;2023-01-08T16:52:35;3.97;;;2.10;;
45848;SDS011;31567;54.600;9.842;2023-01-08T16:56:15;3.63;;;2.38;;
45848;SDS011;31567;54.600;9.842;2023-01-08T16:59:55;3.97;;;2.10;;
45848;SDS011;31567;54.600;9.842;2023-01-08T17:03:34;3.88;;;1.90;;
45848;SDS011;31567;54.600;9.842;2023-01-08T17:07:14;4.55;;;2.10;;
45848;SDS011;31567;54.600;9.842;2023-01-08T17:10:53;3.95;;;1.63;;
45848;SDS011;31567;54.600;9.842;2023-01-08T17:14:33;4.03;;;1.85;;
45848;SDS011;31567;54.600;9.842;2023-01-08T17:18:14;3.17;;;1.75;;
45848;SDS011;31567;54.600;9.842;2023-01-08T17:21:54;5.75;;;1.80;;
45848;SDS011;31567;54.600;9.842;2023-01-08T17:25:33;4.30;;;2.60;;
45848;SDS011;31567;54.600;9.842;2023-01-08T17:29:18;5.72;;;2.85;;
45848;SDS011;31567;54.600;9.842;2023-01-08T17:32:57;5.93;;;2.40;;
45848;SDS011;31567;54.600;9.842;2023-01-08T17:36:37;4.68;;;2.45;;
45848;SDS011;31567;54.600;9.842;2023-01-08T17:40:17;4.70;;;2.47;;
45848;SDS011;31567;54.600;9.842;2023-01-08T17:43:56;6.10;;;2.42;;
45848;SDS011;31567;54.600;9.842;2023-01-08T17:47:36;7.15;;;2.47;;
45848;SDS011;31567;54.600;9.842;2023-01-08T17:51:17;4.43;;;2.17;;
45848;SDS011;31567;54.600;9.842;2023-01-08T17:54:56;3.72;;;2.90;;
45848;SDS011;31567;54.600;9.842;2023-01-08T17:58:36;8.82;;;3.00;;
45848;SDS011;31567;54.600;9.842;2023-01-08T18:02:15;8.43;;;2.92;;
45848;SDS011;31567;54.600;9.842;2023-01-08T18:05:55;4.85;;;2.70;;
45848;SDS011;31567;54.600;9.842;2023-01-08T18:09:35;6.43;;;2.72;;
45848;SDS011;31567;54.600;9.842;2023-01-08T18:13:14;6.82;;;3.90;;
45848;SDS011;31567;54.600;9.842;2023-01-08T18:16:54;6.03;;;3.17;;
45848;SDS011;31567;54.600;9.842;2023-01-08T18:20:34;3.50;;;2.53;;
45848;SDS011;31567;54.600;9.842;2023-01-08T18:24:17;4.50;;;2.10;;
45848;SDS011;31567;54.600;9.842;2023-01-08T18:27:56;8.43;;;2.10;;
45848;SDS011;31567;54.600;9.842;2023-01-08T18:31:36;5.28;;;1.98;;
45848;SDS011;31567;54.600;9.842;2023-01-08T18:35:16;4.53;;;2.13;;
45848;SDS011;31567;54.600;9.842;2023-01-08T18:38:57;6.97;;;1.80;;
45848;SDS011;31567;54.600;9.842;2023-01-08T18:42:36;7.35;;;2.00;;
45848;SDS011;31567;54.600;9.842;2023-01-08T18:46:16;5.85;;;1.50;;
45848;SDS011;31567;54.600;9.842;2023-01-08T18:49:56;6.80;;;1.35;;
45848;SDS011;31567;54.600;9.842;2023-01-08T18:53:37;3.70;;;1.20;;
45848;SDS011;31567;54.600;9.842;2023-01-08T18:57:17;8.63;;;2.10;;
45848;SDS011;31567;54.600;9.842;2023-01-08T19:01:03;3.47;;;1.65;;
45848;SDS011;31567;54.600;9.842;2023-01-08T19:04:42;4.63;;;1.77;;
45848;SDS011;31567;54.600;9.842;2023-01-08T19:08:22;5.35;;;1.55;;
45848;SDS011;31567;54.600;9.842;2023-01-08T19:12:02;9.95;;;1.80;;
45848;SDS011;31567;54.600;9.842;2023-01-08T19:15:41;4.00;;;1.65;;
45848;SDS011;31567;54.600;9.842;2023-01-08T19:19:21;4.90;;;1.70;;
45848;SDS011;31567;54.600;9.842;2023-01-08T19:23:00;7.20;;;1.80;;
45848;SDS011;31567;54.600;9.842;2023-01-08T19:26:40;5.88;;;2.03;;
45848;SDS011;31567;54.600;9.842;2023-01-08T19:30:20;5.78;;;1.70;;
45848;SDS011;31567;54.600;9.842;2023-01-08T19:34:00;4.80;;;1.77;;
45848;SDS011;31567;54.600;9.842;2023-01-08T19:37:40;4.78;;;1.75;;
45848;SDS011;31567;54.600;9.842;2023-01-08T19:41:20;5.50;;;1.48;;
45848;SDS011;31567;54.600;9.842;2023-01-08T19:45:19;5.68;;;1.60;;
45848;SDS011;31567;54.600;9.842;2023-01-08T19:48:59;8.05;;;1.70;;
45848;SDS011;31567;54.600;9.842;2023-01-08T19:52:39;5.32;;;1.60;;
45848;SDS011;31567;54.600;9.842;2023-01-08T19:56:19;5.07;;;1.35;;
45848;SDS011;31567;54.600;9.842;2023-01-08T19:59:58;4.18;;;1.00;;
45848;SDS011;31567;54.600;9.842;2023-01-08T20:03:38;5.70;;;1.48;;
45848;SDS011;31567;54.600;9.842;2023-01-08T20:07:18;3.47;;;1.00;;
45848;SDS011;31567;54.600;9.842;2023-01-08T20:11:03;4.13;;;1.13;;
45848;SDS011;31567;54.600;9.842;2023-01-08T20:14:46;4.55;;;1.30;;
45848;SDS011;31567;54.600;9.842;2023-01-08T20:18:26;6.00;;;1.10;;
45848;SDS011;31567;54.600;9.842;2023-01-08T20:22:07;4.38;;;1.23;;
45848;SDS011;31567;54.600;9.842;2023-01-08T20:25:47;3.08;;;1.30;;
45848;SDS011;31567;54.600;9.842;2023-01-08T20:29:27;3.17;;;1.30;;
45848;SDS011;31567;54.600;9.842;2023-01-08T20:33:06;3.67;;;1.13;;
45848;SDS011;31567;54.600;9.842;2023-01-08T20:36:46;8.15;;;1.55;;
45848;SDS011;31567;54.600;9.842;2023-01-08T20:40:25;5.97;;;2.30;;
45848;SDS011;31567;54.600;9.842;2023-01-08T20:44:05;4.65;;;2.08;;
45848;SDS011;31567;54.600;9.842;2023-01-08T20:47:45;8.27;;;2.65;;
45848;SDS011;31567;54.600;9.842;2023-01-08T20:51:24;6.68;;;2.38;;
45848;SDS011;31567;54.600;9.842;2023-01-08T20:55:04;9.73;;;3.00;;
45848;SDS011;31567;54.600;9.842;2023-01-08T20:58:44;10.35;;;3.55;;
45848;SDS011;31567;54.600;9.842;2023-01-08T21:02:25;8.25;;;3.80;;
45848;SDS011;31567;54.600;9.842;2023-01-08T21:06:06;10.85;;;4.10;;
45848;SDS011;31567;54.600;9.842;2023-01-08T21:09:47;9.20;;;3.97;;
45848;SDS011;31567;54.600;9.842;2023-01-08T21:13:27;10.30;;;5.13;;
45848;SDS011;31567;54.600;9.842;2023-01-08T21:17:06;9.10;;;4.97;;
45848;SDS011;31567;54.600;9.842;2023-01-08T21:20:46;5.72;;;4.45;;
45848;SDS011;31567;54.600;9.842;2023-01-08T21:24:26;11.07;;;4.55;;
45848;SDS011;31567;54.600;9.842;2023-01-08T21:28:05;8.88;;;4.13;;
45848;SDS011;31567;54.600;9.842;2023-01-08T21:31:46;9.52;;;4.18;;
45848;SDS011;31567;54.600;9.842;2023-01-08T21:35:26;6.75;;;3.95;;
45848;SDS011;31567;54.600;9.842;2023-01-08T21:39:05;7.43;;;3.78;;
45848;SDS011;31567;54.600;9.842;2023-01-08T21:42:45;9.43;;;4.30;;
45848;SDS011;31567;54.600;9.842;2023-01-08T21:46:43;8.07;;;4.07;;
45848;SDS011;31567;54.600;9.842;2023-01-08T21:50:23;5.22;;;3.55;;
45848;SDS011;31567;54.600;9.842;2023-01-08T21:54:03;8.98;;;3.67;;
45848;SDS011;31567;54.600;9.842;2023-01-08T21:57:43;6.07;;;3.63;;
45848;SDS011;31567;54.600;9.842;2023-01-08T22:01:23;7.05;;;3.85;;
45848;SDS011;31567;54.600;9.842;2023-01-08T22:05:03;10.43;;;3.65;;
45848;SDS011;31567;54.600;9.842;2023-01-08T22:08:42;6.60;;;3.20;;
45848;SDS011;31567;54.600;9.842;2023-01-08T22:12:23;7.47;;;3.20;;
45848;SDS011;31567;54.600;9.842;2023-01-08T22:16:05;6.88;;;3.20;;
45848;SDS011;31567;54.600;9.842;2023-01-08T22:19:46;7.60;;;2.92;;
45848;SDS011;31567;54.600;9.842;2023-01-08T22:23:26;7.88;;;3.40;;
45848;SDS011;31567;54.600;9.842;2023-01-08T22:27:06;6.05;;;3.10;;
45848;SDS011;31567;54.600;9.842;2023-01-08T22:30:46;5.25;;;2.95;;
45848;SDS011;31567;54.600;9.842;2023-01-08T22:34:30;8.25;;;3.13;;
45848;SDS011;31567;54.600;9.842;2023-01-08T22:38:11;5.50;;;2.90;;
45848;SDS011;31567;54.600;9.842;2023-01-08T22:41:50;7.63;;;2.80;;
45848;SDS011;31567;54.600;9.842;2023-01-08T22:45:30;3.83;;;2.40;;
45848;SDS011;31567;54.600;9.842;2023-01-08T22:49:10;5.35;;;2.63;;
45848;SDS011;31567;54.600;9.842;2023-01-08T22:52:51;4.55;;;2.25;;
45848;SDS011;31567;54.600;9.842;2023-01-08T22:56:30;5.00;;;2.70;;
45848;SDS011;31567;54.600;9.842;2023-01-08T23:00:10;2.42;;;2.00;;
45848;SDS011;31567;54.600;9.842;2023-01-08T23:03:51;5.97;;;2.10;;
45848;SDS011;31567;54.600;9.842;2023-01-08T23:07:32;3.05;;;2.20;;
45848;SDS011;31567;54.600;9.842;2023-01-08T23:11:12;3.30;;;2.58;;
45848;SDS011;31567;54.600;9.842;2023-01-08T23:14:52;7.53;;;2.42;;
45848;SDS011;31567;54.600;9.842;2023-01-08T23:18:32;2.80;;;2.42;;
45848;SDS011;31567;54.600;9.842;2023-01-08T23:22:13;4.55;;;2.40;;
45848;SDS011;31567;54.600;9.842;2023-01-08T23:25:53;5.45;;;2.60;;
45848;SDS011;31567;54.600;9.842;2023-01-08T23:29:32;3.38;;;2.40;;
45848;SDS011;31567;54.600;9.842;2023-01-08T23:33:12;4.75;;;3.08;;
45848;SDS011;31567;54.600;9.842;2023-01-08T23:36:51;2.72;;;2.50;;